sensor_id;sensor_type;location;lat;lon;timestamp;temperature;humidity
23579;DHT22;11967;50.852;4.400;2022-12-11T00:00:16;5.30;99.90
23579;DHT22;11967;50.852;4.400;2022-12-11T00:02:42;5.30;99.90
23579;DHT22;11967;50.852;4.400;2022-12-11T00:05:08;5.30;99.90
23579;DHT22;11967;50.852;4.400;2022-12-11T00:07:34;5.20;99.90
23579;DHT22;11967;50.852;4.400;2022-12-11T00:09:59;5.30;99.90
23579;DHT22;11967;50.852;4.400;2022-12-11T00:12:28;5.30;99.90
23579;DHT22;11967;50.852;4.400;2022-12-11T00:14:54;5.30;99.90
23579;DHT22;11967;50.852;4.400;2022-12-11T00:17:21;5.30;99.90
23579;DHT22;11967;50.852;4.400;2022-12-11T00:19:46;5.40;99.90
23579;DHT22;11967;50.852;4.400;2022-12-11T00:22:12;5.40;99.90
23579;DHT22;11967;50.852;4.400;2022-12-11T00:24:38;5.50;99.90
23579;DHT22;11967;50.852;4.400;2022-12-11T00:27:03;5.50;99.90
23579;DHT22;11967;50.852;4.400;2022-12-11T00:29:29;5.50;99.90
23579;DHT22;11967;50.852;4.400;2022-12-11T00:31:54;5.40;99.90
23579;DHT22;11967;50.852;4.400;2022-12-11T00:34:20;5.30;99.90
23579;DHT22;11967;50.852;4.400;2022-12-11T00:36:46;5.20;99.90
23579;DHT22;11967;50.852;4.400;2022-12-11T00:39:12;5.40;99.90
23579;DHT22;11967;50.852;4.400;2022-12-11T00:41:38;5.30;99.90
23579;DHT22;11967;50.852;4.400;2022-12-11T00:44:04;5.40;99.90
23579;DHT22;11967;50.852;4.400;2022-12-11T00:46:29;5.50;99.90
23579;DHT22;11967;50.852;4.400;2022-12-11T00:48:55;5.40;99.90
23579;DHT22;11967;50.852;4.400;2022-12-11T00:51:21;5.50;99.90
23579;DHT22;11967;50.852;4.400;2022-12-11T00:53:46;5.40;99.90
23579;DHT22;11967;50.852;4.400;2022-12-11T00:56:15;5.30;99.90
23579;DHT22;11967;50.852;4.400;2022-12-11T00:58:41;5.30;99.90
23579;DHT22;11967;50.852;4.400;2022-12-11T01:01:10;5.30;99.90
23579;DHT22;11967;50.852;4.400;2022-12-11T01:03:37;5.30;99.90
23579;DHT22;11967;50.852;4.400;2022-12-11T01:06:04;5.40;99.90
23579;DHT22;11967;50.852;4.400;2022-12-11T01:08:30;5.40;99.90
23579;DHT22;11967;50.852;4.400;2022-12-11T01:11:09;5.40;99.90
23579;DHT22;11967;50.852;4.400;2022-12-11T01:13:36;5.40;99.90
23579;DHT22;11967;50.852;4.400;2022-12-11T01:16:15;5.60;99.90
23579;DHT22;11967;50.852;4.400;2022-12-11T01:18:41;5.40;99.90
23579;DHT22;11967;50.852;4.400;2022-12-11T01:21:08;5.40;99.90
23579;DHT22;11967;50.852;4.400;2022-12-11T01:23:34;5.40;99.90
23579;DHT22;11967;50.852;4.400;2022-12-11T01:26:11;5.50;99.90
23579;DHT22;11967;50.852;4.400;2022-12-11T01:28:38;5.60;99.90
23579;DHT22;11967;50.852;4.400;2022-12-11T01:31:11;5.60;99.90
23579;DHT22;11967;50.852;4.400;2022-12-11T01:33:37;5.60;99.90
23579;DHT22;11967;50.852;4.400;2022-12-11T01:36:14;5.60;99.90
23579;DHT22;11967;50.852;4.400;2022-12-11T01:38:40;5.50;99.90
23579;DHT22;11967;50.852;4.400;2022-12-11T01:41:06;5.50;99.90
23579;DHT22;11967;50.852;4.400;2022-12-11T01:43:32;5.60;99.90
23579;DHT22;11967;50.852;4.400;2022-12-11T01:45:58;5.70;99.90
23579;DHT22;11967;50.852;4.400;2022-12-11T01:48:27;5.50;99.90
23579;DHT22;11967;50.852;4.400;2022-12-11T01:50:56;5.60;99.90
23579;DHT22;11967;50.852;4.400;2022-12-11T01:53:26;5.60;99.90
23579;DHT22;11967;50.852;4.400;2022-12-11T01:55:54;5.70;99.90
23579;DHT22;11967;50.852;4.400;2022-12-11T01:58:34;5.70;99.90
23579;DHT22;11967;50.852;4.400;2022-12-11T02:01:03;5.70;99.90
23579;DHT22;11967;50.852;4.400;2022-12-11T02:03:29;5.60;99.90
23579;DHT22;11967;50.852;4.400;2022-12-11T02:06:01;5.70;99.90
23579;DHT22;11967;50.852;4.400;2022-12-11T02:08:27;5.70;99.90
23579;DHT22;11967;50.852;4.400;2022-12-11T02:11:14;5.60;99.90
23579;DHT22;11967;50.852;4.400;2022-12-11T02:14:06;5.60;99.90
23579;DHT22;11967;50.852;4.400;2022-12-11T02:17:12;5.60;99.90
23579;DHT22;11967;50.852;4.400;2022-12-11T02:28:01;5.60;99.90
23579;DHT22;11967;50.852;4.400;2022-12-11T02:30:27;5.60;99.90
23579;DHT22;11967;50.852;4.400;2022-12-11T02:32:55;5.70;99.90
23579;DHT22;11967;50.852;4.400;2022-12-11T02:35:33;5.60;99.90
23579;DHT22;11967;50.852;4.400;2022-12-11T02:38:25;5.60;99.90
23579;DHT22;11967;50.852;4.400;2022-12-11T02:40:54;5.80;99.90
23579;DHT22;11967;50.852;4.400;2022-12-11T02:43:22;5.70;99.90
23579;DHT22;11967;50.852;4.400;2022-12-11T02:45:49;5.70;99.90
23579;DHT22;11967;50.852;4.400;2022-12-11T02:48:16;5.60;99.90
23579;DHT22;11967;50.852;4.400;2022-12-11T02:50:46;5.70;99.90
23579;DHT22;11967;50.852;4.400;2022-12-11T02:53:15;5.70;99.90
23579;DHT22;11967;50.852;4.400;2022-12-11T02:55:43;5.60;99.90
23579;DHT22;11967;50.852;4.400;2022-12-11T02:58:22;5.60;99.90
23579;DHT22;11967;50.852;4.400;2022-12-11T03:00:49;5.60;99.90
23579;DHT22;11967;50.852;4.400;2022-12-11T03:03:15;5.70;99.90
23579;DHT22;11967;50.852;4.400;2022-12-11T03:05:41;5.70;99.90
23579;DHT22;11967;50.852;4.400;2022-12-11T03:08:07;5.70;99.90
23579;DHT22;11967;50.852;4.400;2022-12-11T03:10:33;5.60;99.90
23579;DHT22;11967;50.852;4.400;2022-12-11T03:12:59;5.60;99.90
23579;DHT22;11967;50.852;4.400;2022-12-11T03:18:17;5.50;99.90
23579;DHT22;11967;50.852;4.400;2022-12-11T03:20:51;5.40;99.90
23579;DHT22;11967;50.852;4.400;2022-12-11T03:23:56;5.40;99.90
23579;DHT22;11967;50.852;4.400;2022-12-11T03:26:23;5.40;99.90
23579;DHT22;11967;50.852;4.400;2022-12-11T03:29:01;5.50;99.90
23579;DHT22;11967;50.852;4.400;2022-12-11T03:31:34;5.50;99.90
23579;DHT22;11967;50.852;4.400;2022-12-11T03:34:03;5.50;99.90
23579;DHT22;11967;50.852;4.400;2022-12-11T03:36:35;5.50;99.90
23579;DHT22;11967;50.852;4.400;2022-12-11T03:39:06;5.50;99.90
23579;DHT22;11967;50.852;4.400;2022-12-11T03:41:35;5.40;99.90
23579;DHT22;11967;50.852;4.400;2022-12-11T03:44:03;5.50;99.90
23579;DHT22;11967;50.852;4.400;2022-12-11T03:46:35;5.50;99.90
23579;DHT22;11967;50.852;4.400;2022-12-11T03:49:08;5.50;99.90
23579;DHT22;11967;50.852;4.400;2022-12-11T03:51:35;5.50;99.90
23579;DHT22;11967;50.852;4.400;2022-12-11T03:54:02;5.60;99.90
23579;DHT22;11967;50.852;4.400;2022-12-11T03:56:30;5.50;99.90
23579;DHT22;11967;50.852;4.400;2022-12-11T03:58:58;5.50;99.90
23579;DHT22;11967;50.852;4.400;2022-12-11T04:01:24;5.50;99.90
23579;DHT22;11967;50.852;4.400;2022-12-11T04:03:49;5.50;99.90
23579;DHT22;11967;50.852;4.400;2022-12-11T04:06:15;5.40;99.90
23579;DHT22;11967;50.852;4.400;2022-12-11T04:08:41;5.40;99.90
23579;DHT22;11967;50.852;4.400;2022-12-11T04:11:06;5.40;99.90
23579;DHT22;11967;50.852;4.400;2022-12-11T04:13:50;5.50;99.90
23579;DHT22;11967;50.852;4.400;2022-12-11T04:16:36;5.50;99.90
23579;DHT22;11967;50.852;4.400;2022-12-11T04:19:02;5.70;99.90
23579;DHT22;11967;50.852;4.400;2022-12-11T04:21:46;5.70;99.90
23579;DHT22;11967;50.852;4.400;2022-12-11T04:24:30;5.70;99.90
23579;DHT22;11967;50.852;4.400;2022-12-11T04:26:55;5.60;99.90
23579;DHT22;11967;50.852;4.400;2022-12-11T04:29:21;5.70;99.90
23579;DHT22;11967;50.852;4.400;2022-12-11T04:31:47;5.60;99.90
23579;DHT22;11967;50.852;4.400;2022-12-11T04:34:12;5.60;99.90
23579;DHT22;11967;50.852;4.400;2022-12-11T04:36:38;5.60;99.90
23579;DHT22;11967;50.852;4.400;2022-12-11T04:39:04;5.60;99.90
23579;DHT22;11967;50.852;4.400;2022-12-11T04:41:30;5.60;99.90
23579;DHT22;11967;50.852;4.400;2022-12-11T04:43:56;5.70;99.90
23579;DHT22;11967;50.852;4.400;2022-12-11T04:46:23;5.60;99.90
23579;DHT22;11967;50.852;4.400;2022-12-11T04:48:50;5.60;99.90
23579;DHT22;11967;50.852;4.400;2022-12-11T04:51:17;5.60;99.90
23579;DHT22;11967;50.852;4.400;2022-12-11T04:53:43;5.70;99.90
23579;DHT22;11967;50.852;4.400;2022-12-11T04:56:13;5.60;99.90
23579;DHT22;11967;50.852;4.400;2022-12-11T04:58:39;5.60;99.90
23579;DHT22;11967;50.852;4.400;2022-12-11T05:01:14;5.60;99.90
23579;DHT22;11967;50.852;4.400;2022-12-11T05:03:41;5.60;99.90
23579;DHT22;11967;50.852;4.400;2022-12-11T05:06:08;5.60;99.90
23579;DHT22;11967;50.852;4.400;2022-12-11T05:08:35;5.70;99.90
23579;DHT22;11967;50.852;4.400;2022-12-11T05:11:04;5.70;99.90
23579;DHT22;11967;50.852;4.400;2022-12-11T05:13:30;5.70;99.90
23579;DHT22;11967;50.852;4.400;2022-12-11T05:15:56;5.80;99.90
23579;DHT22;11967;50.852;4.400;2022-12-11T05:18:22;5.70;99.90
23579;DHT22;11967;50.852;4.400;2022-12-11T05:23:21;5.60;99.90
23579;DHT22;11967;50.852;4.400;2022-12-11T05:25:58;5.60;99.90
23579;DHT22;11967;50.852;4.400;2022-12-11T05:28:25;5.60;99.90
23579;DHT22;11967;50.852;4.400;2022-12-11T05:30:59;5.60;99.90
23579;DHT22;11967;50.852;4.400;2022-12-11T05:33:25;5.60;99.90
23579;DHT22;11967;50.852;4.400;2022-12-11T05:35:51;5.60;99.90
23579;DHT22;11967;50.852;4.400;2022-12-11T05:38:17;5.60;99.90
23579;DHT22;11967;50.852;4.400;2022-12-11T05:40:43;5.60;99.90
23579;DHT22;11967;50.852;4.400;2022-12-11T05:43:08;5.70;99.90
23579;DHT22;11967;50.852;4.400;2022-12-11T05:45:34;5.70;99.90
23579;DHT22;11967;50.852;4.400;2022-12-11T05:48:00;5.70;99.90
23579;DHT22;11967;50.852;4.400;2022-12-11T05:50:25;5.60;99.90
23579;DHT22;11967;50.852;4.400;2022-12-11T05:52:51;5.50;99.90
23579;DHT22;11967;50.852;4.400;2022-12-11T05:55:16;5.50;99.90
23579;DHT22;11967;50.852;4.400;2022-12-11T05:57:42;5.60;99.90
23579;DHT22;11967;50.852;4.400;2022-12-11T06:00:11;5.50;99.90
23579;DHT22;11967;50.852;4.400;2022-12-11T06:02:37;5.50;99.90
23579;DHT22;11967;50.852;4.400;2022-12-11T06:05:02;5.60;99.90
23579;DHT22;11967;50.852;4.400;2022-12-11T06:07:28;5.50;99.90
23579;DHT22;11967;50.852;4.400;2022-12-11T06:09:54;5.50;99.90
23579;DHT22;11967;50.852;4.400;2022-12-11T06:12:19;5.40;99.90
23579;DHT22;11967;50.852;4.400;2022-12-11T06:14:45;5.50;99.90
23579;DHT22;11967;50.852;4.400;2022-12-11T06:17:10;5.50;99.90
23579;DHT22;11967;50.852;4.400;2022-12-11T06:19:36;5.50;99.90
23579;DHT22;11967;50.852;4.400;2022-12-11T06:22:02;5.40;99.90
23579;DHT22;11967;50.852;4.400;2022-12-11T06:24:27;5.40;99.90
23579;DHT22;11967;50.852;4.400;2022-12-11T06:26:53;5.40;99.90
23579;DHT22;11967;50.852;4.400;2022-12-11T06:29:21;5.40;99.90
23579;DHT22;11967;50.852;4.400;2022-12-11T06:31:47;5.50;99.90
23579;DHT22;11967;50.852;4.400;2022-12-11T06:34:12;5.50;99.90
23579;DHT22;11967;50.852;4.400;2022-12-11T06:36:41;5.40;99.90
23579;DHT22;11967;50.852;4.400;2022-12-11T06:39:07;5.40;99.90
23579;DHT22;11967;50.852;4.400;2022-12-11T06:41:33;5.40;99.90
23579;DHT22;11967;50.852;4.400;2022-12-11T06:43:58;5.50;99.90
23579;DHT22;11967;50.852;4.400;2022-12-11T06:46:24;5.50;99.90
23579;DHT22;11967;50.852;4.400;2022-12-11T06:48:50;5.40;99.90
23579;DHT22;11967;50.852;4.400;2022-12-11T06:51:20;5.30;99.90
23579;DHT22;11967;50.852;4.400;2022-12-11T06:53:54;5.20;99.90
23579;DHT22;11967;50.852;4.400;2022-12-11T06:56:20;5.30;99.90
23579;DHT22;11967;50.852;4.400;2022-12-11T06:58:46;5.10;99.90
23579;DHT22;11967;50.852;4.400;2022-12-11T07:01:17;5.20;99.90
23579;DHT22;11967;50.852;4.400;2022-12-11T07:03:43;5.20;99.90
23579;DHT22;11967;50.852;4.400;2022-12-11T07:06:09;5.20;99.90
23579;DHT22;11967;50.852;4.400;2022-12-11T07:08:35;5.30;99.90
23579;DHT22;11967;50.852;4.400;2022-12-11T07:11:03;5.20;99.90
23579;DHT22;11967;50.852;4.400;2022-12-11T07:13:29;5.20;99.90
23579;DHT22;11967;50.852;4.400;2022-12-11T07:15:57;5.30;99.90
23579;DHT22;11967;50.852;4.400;2022-12-11T07:18:23;5.40;99.90
23579;DHT22;11967;50.852;4.400;2022-12-11T07:20:49;5.50;99.90
23579;DHT22;11967;50.852;4.400;2022-12-11T07:23:16;5.50;99.90
23579;DHT22;11967;50.852;4.400;2022-12-11T07:25:42;5.50;99.90
23579;DHT22;11967;50.852;4.400;2022-12-11T07:28:08;5.50;99.90
23579;DHT22;11967;50.852;4.400;2022-12-11T07:30:33;5.30;99.90
23579;DHT22;11967;50.852;4.400;2022-12-11T07:32:59;5.30;99.90
23579;DHT22;11967;50.852;4.400;2022-12-11T07:35:25;5.20;99.90
23579;DHT22;11967;50.852;4.400;2022-12-11T07:37:50;5.30;99.90
23579;DHT22;11967;50.852;4.400;2022-12-11T07:40:16;5.10;99.90
23579;DHT22;11967;50.852;4.400;2022-12-11T07:42:41;5.10;99.90
23579;DHT22;11967;50.852;4.400;2022-12-11T07:45:09;5.00;99.90
23579;DHT22;11967;50.852;4.400;2022-12-11T07:47:34;5.10;99.90
23579;DHT22;11967;50.852;4.400;2022-12-11T07:50:00;5.10;99.90
23579;DHT22;11967;50.852;4.400;2022-12-11T07:52:26;5.20;99.90
23579;DHT22;11967;50.852;4.400;2022-12-11T07:54:51;5.30;99.90
23579;DHT22;11967;50.852;4.400;2022-12-11T07:57:17;5.20;99.90
23579;DHT22;11967;50.852;4.400;2022-12-11T07:59:42;5.30;99.90
23579;DHT22;11967;50.852;4.400;2022-12-11T08:02:11;5.30;99.90
23579;DHT22;11967;50.852;4.400;2022-12-11T08:04:37;5.20;99.90
23579;DHT22;11967;50.852;4.400;2022-12-11T08:07:02;5.30;99.90
23579;DHT22;11967;50.852;4.400;2022-12-11T08:09:28;5.30;99.90
23579;DHT22;11967;50.852;4.400;2022-12-11T08:11:54;5.30;99.90
23579;DHT22;11967;50.852;4.400;2022-12-11T08:14:20;5.20;99.90
23579;DHT22;11967;50.852;4.400;2022-12-11T08:16:46;5.20;99.90
23579;DHT22;11967;50.852;4.400;2022-12-11T08:19:13;5.20;99.90
23579;DHT22;11967;50.852;4.400;2022-12-11T08:21:39;5.20;99.90
23579;DHT22;11967;50.852;4.400;2022-12-11T08:24:05;5.10;99.90
23579;DHT22;11967;50.852;4.400;2022-12-11T08:26:31;5.20;99.90
23579;DHT22;11967;50.852;4.400;2022-12-11T08:28:59;5.10;99.90
23579;DHT22;11967;50.852;4.400;2022-12-11T08:31:25;5.10;99.90
23579;DHT22;11967;50.852;4.400;2022-12-11T08:33:51;5.10;99.90
23579;DHT22;11967;50.852;4.400;2022-12-11T08:36:19;5.20;99.90
23579;DHT22;11967;50.852;4.400;2022-12-11T08:38:45;5.30;99.90
23579;DHT22;11967;50.852;4.400;2022-12-11T08:41:12;5.40;99.90
23579;DHT22;11967;50.852;4.400;2022-12-11T08:43:38;5.40;99.90
23579;DHT22;11967;50.852;4.400;2022-12-11T08:46:03;5.40;99.90
23579;DHT22;11967;50.852;4.400;2022-12-11T08:48:29;5.40;99.90
23579;DHT22;11967;50.852;4.400;2022-12-11T08:51:00;5.40;99.90
23579;DHT22;11967;50.852;4.400;2022-12-11T08:53:30;5.50;99.90
23579;DHT22;11967;50.852;4.400;2022-12-11T08:56:18;5.60;99.90
23579;DHT22;11967;50.852;4.400;2022-12-11T08:58:45;5.60;99.90
23579;DHT22;11967;50.852;4.400;2022-12-11T09:01:13;5.50;99.90
23579;DHT22;11967;50.852;4.400;2022-12-11T09:03:41;5.50;99.90
23579;DHT22;11967;50.852;4.400;2022-12-11T09:06:12;5.40;99.90
23579;DHT22;11967;50.852;4.400;2022-12-11T09:08:38;5.40;99.90
23579;DHT22;11967;50.852;4.400;2022-12-11T09:11:09;5.50;99.90
23579;DHT22;11967;50.852;4.400;2022-12-11T09:13:35;5.40;99.90
23579;DHT22;11967;50.852;4.400;2022-12-11T09:16:06;5.40;99.90
23579;DHT22;11967;50.852;4.400;2022-12-11T09:18:33;5.50;99.90
23579;DHT22;11967;50.852;4.400;2022-12-11T09:21:01;5.50;99.90
23579;DHT22;11967;50.852;4.400;2022-12-11T09:23:27;5.60;99.90
23579;DHT22;11967;50.852;4.400;2022-12-11T09:25:53;5.50;99.90
23579;DHT22;11967;50.852;4.400;2022-12-11T09:28:19;5.50;99.90
23579;DHT22;11967;50.852;4.400;2022-12-11T09:30:44;5.50;99.90
23579;DHT22;11967;50.852;4.400;2022-12-11T09:33:10;5.60;99.90
23579;DHT22;11967;50.852;4.400;2022-12-11T09:35:39;5.60;99.90
23579;DHT22;11967;50.852;4.400;2022-12-11T09:38:04;5.60;99.90
23579;DHT22;11967;50.852;4.400;2022-12-11T09:40:31;5.70;99.90
23579;DHT22;11967;50.852;4.400;2022-12-11T09:43:08;5.70;99.90
23579;DHT22;11967;50.852;4.400;2022-12-11T09:45:37;5.60;99.90
23579;DHT22;11967;50.852;4.400;2022-12-11T09:48:03;5.60;99.90
23579;DHT22;11967;50.852;4.400;2022-12-11T09:50:33;5.40;99.90
23579;DHT22;11967;50.852;4.400;2022-12-11T09:53:06;5.40;99.90
23579;DHT22;11967;50.852;4.400;2022-12-11T09:55:50;5.50;99.90
23579;DHT22;11967;50.852;4.400;2022-12-11T09:58:23;5.50;99.90
23579;DHT22;11967;50.852;4.400;2022-12-11T10:01:05;5.50;99.90
23579;DHT22;11967;50.852;4.400;2022-12-11T10:06:42;5.60;99.90
23579;DHT22;11967;50.852;4.400;2022-12-11T10:12:00;5.70;99.90
23579;DHT22;11967;50.852;4.400;2022-12-11T10:14:36;5.60;99.90
23579;DHT22;11967;50.852;4.400;2022-12-11T10:19:40;5.60;99.90
23579;DHT22;11967;50.852;4.400;2022-12-11T10:22:25;5.50;99.90
23579;DHT22;11967;50.852;4.400;2022-12-11T10:25:01;5.60;99.90
23579;DHT22;11967;50.852;4.400;2022-12-11T10:27:37;5.60;99.90
23579;DHT22;11967;50.852;4.400;2022-12-11T10:30:23;5.90;99.90
23579;DHT22;11967;50.852;4.400;2022-12-11T10:35:42;5.90;99.90
23579;DHT22;11967;50.852;4.400;2022-12-11T10:40:45;5.70;99.90
23579;DHT22;11967;50.852;4.400;2022-12-11T10:43:11;5.70;99.90
23579;DHT22;11967;50.852;4.400;2022-12-11T10:45:37;5.70;99.90
23579;DHT22;11967;50.852;4.400;2022-12-11T10:48:05;5.60;99.90
23579;DHT22;11967;50.852;4.400;2022-12-11T10:50:31;5.60;99.90
23579;DHT22;11967;50.852;4.400;2022-12-11T10:52:57;5.60;99.90
23579;DHT22;11967;50.852;4.400;2022-12-11T10:55:43;5.80;99.90
23579;DHT22;11967;50.852;4.400;2022-12-11T10:58:37;5.80;99.90
23579;DHT22;11967;50.852;4.400;2022-12-11T11:01:14;5.80;99.90
23579;DHT22;11967;50.852;4.400;2022-12-11T11:06:20;5.90;99.90
23579;DHT22;11967;50.852;4.400;2022-12-11T11:08:52;6.00;99.90
23579;DHT22;11967;50.852;4.400;2022-12-11T11:13:46;6.50;99.90
23579;DHT22;11967;50.852;4.400;2022-12-11T11:16:14;6.70;99.90
23579;DHT22;11967;50.852;4.400;2022-12-11T11:18:40;7.00;99.90
23579;DHT22;11967;50.852;4.400;2022-12-11T11:21:16;7.00;99.90
23579;DHT22;11967;50.852;4.400;2022-12-11T11:23:43;7.50;99.90
23579;DHT22;11967;50.852;4.400;2022-12-11T11:26:09;7.70;99.90
23579;DHT22;11967;50.852;4.400;2022-12-11T11:28:45;7.90;99.90
23579;DHT22;11967;50.852;4.400;2022-12-11T11:31:13;8.10;99.90
23579;DHT22;11967;50.852;4.400;2022-12-11T11:34:01;8.00;99.90
23579;DHT22;11967;50.852;4.400;2022-12-11T11:36:32;8.00;99.90
23579;DHT22;11967;50.852;4.400;2022-12-11T11:39:03;8.00;99.90
23579;DHT22;11967;50.852;4.400;2022-12-11T11:41:43;8.00;99.90
23579;DHT22;11967;50.852;4.400;2022-12-11T11:44:15;8.10;99.90
23579;DHT22;11967;50.852;4.400;2022-12-11T11:46:48;8.20;99.90
23579;DHT22;11967;50.852;4.400;2022-12-11T11:49:23;8.10;99.90
23579;DHT22;11967;50.852;4.400;2022-12-11T11:52:06;8.10;99.90
23579;DHT22;11967;50.852;4.400;2022-12-11T11:57:34;7.90;99.90
23579;DHT22;11967;50.852;4.400;2022-12-11T12:00:14;7.80;99.90
23579;DHT22;11967;50.852;4.400;2022-12-11T12:02:41;7.90;99.90
23579;DHT22;11967;50.852;4.400;2022-12-11T12:05:14;7.80;99.90
23579;DHT22;11967;50.852;4.400;2022-12-11T12:07:50;7.60;99.90
23579;DHT22;11967;50.852;4.400;2022-12-11T12:10:33;7.50;99.90
23579;DHT22;11967;50.852;4.400;2022-12-11T12:13:10;7.40;99.90
23579;DHT22;11967;50.852;4.400;2022-12-11T12:15:56;7.40;99.90
23579;DHT22;11967;50.852;4.400;2022-12-11T12:18:34;7.30;99.90
23579;DHT22;11967;50.852;4.400;2022-12-11T12:21:36;7.30;99.90
23579;DHT22;11967;50.852;4.400;2022-12-11T12:26:51;7.20;99.90
23579;DHT22;11967;50.852;4.400;2022-12-11T12:29:32;7.10;99.90
23579;DHT22;11967;50.852;4.400;2022-12-11T12:32:32;7.10;99.90
23579;DHT22;11967;50.852;4.400;2022-12-11T12:37:57;7.30;99.90
23579;DHT22;11967;50.852;4.400;2022-12-11T12:48:51;6.60;99.90
23579;DHT22;11967;50.852;4.400;2022-12-11T12:51:19;6.60;99.90
23579;DHT22;11967;50.852;4.400;2022-12-11T12:54:05;6.70;99.90
23579;DHT22;11967;50.852;4.400;2022-12-11T12:56:32;6.70;99.90
23579;DHT22;11967;50.852;4.400;2022-12-11T12:58:58;6.70;99.90
23579;DHT22;11967;50.852;4.400;2022-12-11T13:01:25;6.60;99.90
23579;DHT22;11967;50.852;4.400;2022-12-11T13:04:04;6.60;99.90
23579;DHT22;11967;50.852;4.400;2022-12-11T13:06:53;6.50;99.90
23579;DHT22;11967;50.852;4.400;2022-12-11T13:09:23;6.50;99.90
23579;DHT22;11967;50.852;4.400;2022-12-11T13:11:52;6.40;99.90
23579;DHT22;11967;50.852;4.400;2022-12-11T13:16:52;6.30;99.90
23579;DHT22;11967;50.852;4.400;2022-12-11T13:19:29;6.20;99.90
23579;DHT22;11967;50.852;4.400;2022-12-11T13:22:16;6.30;99.90
23579;DHT22;11967;50.852;4.400;2022-12-11T13:27:38;6.40;99.90
23579;DHT22;11967;50.852;4.400;2022-12-11T13:35:17;6.40;99.90
23579;DHT22;11967;50.852;4.400;2022-12-11T13:37:44;6.40;99.90
23579;DHT22;11967;50.852;4.400;2022-12-11T13:45:26;6.60;99.90
23579;DHT22;11967;50.852;4.400;2022-12-11T13:47:55;6.50;99.90
23579;DHT22;11967;50.852;4.400;2022-12-11T13:50:33;6.50;99.90
23579;DHT22;11967;50.852;4.400;2022-12-11T13:53:01;6.40;99.90
23579;DHT22;11967;50.852;4.400;2022-12-11T13:55:30;6.40;99.90
23579;DHT22;11967;50.852;4.400;2022-12-11T13:57:57;6.30;99.90
23579;DHT22;11967;50.852;4.400;2022-12-11T14:00:28;6.20;99.90
23579;DHT22;11967;50.852;4.400;2022-12-11T14:03:01;6.20;99.90
23579;DHT22;11967;50.852;4.400;2022-12-11T14:05:29;6.20;99.90
23579;DHT22;11967;50.852;4.400;2022-12-11T14:07:57;6.20;99.90
23579;DHT22;11967;50.852;4.400;2022-12-11T14:10:26;6.30;99.90
23579;DHT22;11967;50.852;4.400;2022-12-11T14:15:24;6.30;99.90
23579;DHT22;11967;50.852;4.400;2022-12-11T14:17:51;6.40;99.90
23579;DHT22;11967;50.852;4.400;2022-12-11T14:20:28;6.50;99.90
23579;DHT22;11967;50.852;4.400;2022-12-11T14:23:30;6.50;99.90
23579;DHT22;11967;50.852;4.400;2022-12-11T14:25:59;6.50;99.90
23579;DHT22;11967;50.852;4.400;2022-12-11T14:28:27;6.60;99.90
23579;DHT22;11967;50.852;4.400;2022-12-11T14:30:58;6.60;99.90
23579;DHT22;11967;50.852;4.400;2022-12-11T14:33:30;6.50;99.90
23579;DHT22;11967;50.852;4.400;2022-12-11T14:35:57;6.50;99.90
23579;DHT22;11967;50.852;4.400;2022-12-11T14:38:34;6.50;99.90
23579;DHT22;11967;50.852;4.400;2022-12-11T14:41:12;6.50;99.90
23579;DHT22;11967;50.852;4.400;2022-12-11T14:43:47;6.50;99.90
23579;DHT22;11967;50.852;4.400;2022-12-11T14:46:32;6.50;99.90
23579;DHT22;11967;50.852;4.400;2022-12-11T14:49:06;6.60;99.90
23579;DHT22;11967;50.852;4.400;2022-12-11T14:51:37;6.50;99.90
23579;DHT22;11967;50.852;4.400;2022-12-11T14:54:05;6.50;99.90
23579;DHT22;11967;50.852;4.400;2022-12-11T14:56:32;6.50;99.90
23579;DHT22;11967;50.852;4.400;2022-12-11T14:59:04;6.40;99.90
23579;DHT22;11967;50.852;4.400;2022-12-11T15:01:33;6.40;99.90
23579;DHT22;11967;50.852;4.400;2022-12-11T15:04:05;6.30;99.90
23579;DHT22;11967;50.852;4.400;2022-12-11T15:06:33;6.20;99.90
23579;DHT22;11967;50.852;4.400;2022-12-11T15:09:36;6.20;99.90
23579;DHT22;11967;50.852;4.400;2022-12-11T15:12:11;6.20;99.90
23579;DHT22;11967;50.852;4.400;2022-12-11T15:14:53;6.20;99.90
23579;DHT22;11967;50.852;4.400;2022-12-11T15:17:19;6.30;99.90
23579;DHT22;11967;50.852;4.400;2022-12-11T15:19:54;6.20;99.90
23579;DHT22;11967;50.852;4.400;2022-12-11T15:22:21;6.20;99.90
23579;DHT22;11967;50.852;4.400;2022-12-11T15:24:52;6.20;99.90
23579;DHT22;11967;50.852;4.400;2022-12-11T15:27:38;6.30;99.90
23579;DHT22;11967;50.852;4.400;2022-12-11T15:33:23;6.30;99.90
23579;DHT22;11967;50.852;4.400;2022-12-11T15:36:05;6.30;99.90
23579;DHT22;11967;50.852;4.400;2022-12-11T15:38:38;6.30;99.90
23579;DHT22;11967;50.852;4.400;2022-12-11T15:41:13;6.40;99.90
23579;DHT22;11967;50.852;4.400;2022-12-11T15:43:39;6.40;99.90
23579;DHT22;11967;50.852;4.400;2022-12-11T15:46:05;6.50;99.90
23579;DHT22;11967;50.852;4.400;2022-12-11T15:48:32;6.40;99.90
23579;DHT22;11967;50.852;4.400;2022-12-11T15:50:58;6.40;99.90
23579;DHT22;11967;50.852;4.400;2022-12-11T15:53:25;6.40;99.90
23579;DHT22;11967;50.852;4.400;2022-12-11T15:55:51;6.30;99.90
23579;DHT22;11967;50.852;4.400;2022-12-11T15:58:19;6.20;99.90
23579;DHT22;11967;50.852;4.400;2022-12-11T16:00:45;6.30;99.90
23579;DHT22;11967;50.852;4.400;2022-12-11T16:03:13;6.30;99.90
23579;DHT22;11967;50.852;4.400;2022-12-11T16:05:40;6.30;99.90
23579;DHT22;11967;50.852;4.400;2022-12-11T16:08:06;6.20;99.90
23579;DHT22;11967;50.852;4.400;2022-12-11T16:10:32;6.30;99.90
23579;DHT22;11967;50.852;4.400;2022-12-11T16:12:58;6.30;99.90
23579;DHT22;11967;50.852;4.400;2022-12-11T16:15:27;6.40;99.90
23579;DHT22;11967;50.852;4.400;2022-12-11T16:18:04;6.50;99.90
23579;DHT22;11967;50.852;4.400;2022-12-11T16:20:30;6.40;99.90
23579;DHT22;11967;50.852;4.400;2022-12-11T16:22:57;6.50;99.90
23579;DHT22;11967;50.852;4.400;2022-12-11T16:25:23;6.40;99.90
23579;DHT22;11967;50.852;4.400;2022-12-11T16:27:49;6.30;99.90
23579;DHT22;11967;50.852;4.400;2022-12-11T16:30:15;6.70;99.90
23579;DHT22;11967;50.852;4.400;2022-12-11T16:32:40;6.90;99.90
23579;DHT22;11967;50.852;4.400;2022-12-11T16:35:06;6.90;99.90
23579;DHT22;11967;50.852;4.400;2022-12-11T16:37:32;6.90;99.90
23579;DHT22;11967;50.852;4.400;2022-12-11T16:39:58;6.80;99.90
23579;DHT22;11967;50.852;4.400;2022-12-11T16:42:24;6.70;99.90
23579;DHT22;11967;50.852;4.400;2022-12-11T16:44:49;6.90;99.90
23579;DHT22;11967;50.852;4.400;2022-12-11T16:47:15;6.90;99.90
23579;DHT22;11967;50.852;4.400;2022-12-11T16:49:41;7.00;99.90
23579;DHT22;11967;50.852;4.400;2022-12-11T16:52:07;6.80;99.90
23579;DHT22;11967;50.852;4.400;2022-12-11T16:54:33;6.80;99.90
23579;DHT22;11967;50.852;4.400;2022-12-11T16:56:59;6.90;99.90
23579;DHT22;11967;50.852;4.400;2022-12-11T16:59:24;6.80;99.90
23579;DHT22;11967;50.852;4.400;2022-12-11T17:01:50;6.70;99.90
23579;DHT22;11967;50.852;4.400;2022-12-11T17:04:16;6.70;99.90
23579;DHT22;11967;50.852;4.400;2022-12-11T17:06:41;6.60;99.90
23579;DHT22;11967;50.852;4.400;2022-12-11T17:09:07;6.70;99.90
23579;DHT22;11967;50.852;4.400;2022-12-11T17:11:33;6.70;99.90